sensor_id;sensor_type;location;lat;lon;timestamp;temperature;humidity
25939;DHT22;13739;51.172;4.466;2023-03-23T00:01:26;13.10;1.00
25939;DHT22;13739;51.172;4.466;2023-03-23T00:03:55;13.20;1.00
25939;DHT22;13739;51.172;4.466;2023-03-23T00:06:26;13.30;1.00
25939;DHT22;13739;51.172;4.466;2023-03-23T00:08:54;13.30;1.00
25939;DHT22;13739;51.172;4.466;2023-03-23T00:11:26;13.30;1.00
25939;DHT22;13739;51.172;4.466;2023-03-23T00:13:54;13.30;1.00
25939;DHT22;13739;51.172;4.466;2023-03-23T00:16:24;13.20;1.00
25939;DHT22;13739;51.172;4.466;2023-03-23T00:19:04;13.20;1.00
25939;DHT22;13739;51.172;4.466;2023-03-23T00:21:33;13.20;1.00
25939;DHT22;13739;51.172;4.466;2023-03-23T00:26:30;13.20;1.00
25939;DHT22;13739;51.172;4.466;2023-03-23T00:28:59;13.20;1.00
25939;DHT22;13739;51.172;4.466;2023-03-23T00:31:26;13.10;1.00
25939;DHT22;13739;51.172;4.466;2023-03-23T00:33:57;13.20;1.00
25939;DHT22;13739;51.172;4.466;2023-03-23T00:36:23;13.20;1.00
25939;DHT22;13739;51.172;4.466;2023-03-23T00:38:50;13.20;1.00
25939;DHT22;13739;51.172;4.466;2023-03-23T00:41:15;13.20;1.00
25939;DHT22;13739;51.172;4.466;2023-03-23T00:43:41;13.20;1.00
25939;DHT22;13739;51.172;4.466;2023-03-23T00:46:07;13.20;1.00
25939;DHT22;13739;51.172;4.466;2023-03-23T00:48:36;13.20;1.00
25939;DHT22;13739;51.172;4.466;2023-03-23T00:51:03;13.30;1.00
25939;DHT22;13739;51.172;4.466;2023-03-23T00:53:38;13.20;1.00
25939;DHT22;13739;51.172;4.466;2023-03-23T00:56:04;13.20;1.00
25939;DHT22;13739;51.172;4.466;2023-03-23T00:58:29;13.30;1.00
25939;DHT22;13739;51.172;4.466;2023-03-23T01:00:55;13.30;1.00
25939;DHT22;13739;51.172;4.466;2023-03-23T01:03:22;13.20;1.00
25939;DHT22;13739;51.172;4.466;2023-03-23T01:05:51;13.30;1.00
25939;DHT22;13739;51.172;4.466;2023-03-23T01:08:18;13.30;1.00
25939;DHT22;13739;51.172;4.466;2023-03-23T01:10:45;13.30;1.00
25939;DHT22;13739;51.172;4.466;2023-03-23T01:13:11;13.30;1.00
25939;DHT22;13739;51.172;4.466;2023-03-23T01:15:37;13.30;1.00
25939;DHT22;13739;51.172;4.466;2023-03-23T01:18:04;13.30;1.00
25939;DHT22;13739;51.172;4.466;2023-03-23T01:20:29;13.30;1.00
25939;DHT22;13739;51.172;4.466;2023-03-23T01:22:59;13.20;1.00
25939;DHT22;13739;51.172;4.466;2023-03-23T01:25:35;13.30;1.00
25939;DHT22;13739;51.172;4.466;2023-03-23T01:28:02;13.30;1.00
25939;DHT22;13739;51.172;4.466;2023-03-23T01:30:28;13.30;1.00
25939;DHT22;13739;51.172;4.466;2023-03-23T01:32:54;13.30;1.00
25939;DHT22;13739;51.172;4.466;2023-03-23T01:35:20;13.20;1.00
25939;DHT22;13739;51.172;4.466;2023-03-23T01:37:46;13.30;1.00
25939;DHT22;13739;51.172;4.466;2023-03-23T01:40:14;13.30;1.00
25939;DHT22;13739;51.172;4.466;2023-03-23T01:42:40;13.30;1.00
25939;DHT22;13739;51.172;4.466;2023-03-23T01:47:57;13.40;1.00
25939;DHT22;13739;51.172;4.466;2023-03-23T01:50:25;13.30;1.00
25939;DHT22;13739;51.172;4.466;2023-03-23T01:52:54;13.40;1.00
25939;DHT22;13739;51.172;4.466;2023-03-23T01:55:21;13.30;1.00
25939;DHT22;13739;51.172;4.466;2023-03-23T01:57:47;13.40;1.00
25939;DHT22;13739;51.172;4.466;2023-03-23T02:00:15;13.40;1.00
25939;DHT22;13739;51.172;4.466;2023-03-23T02:02:45;13.30;1.00
25939;DHT22;13739;51.172;4.466;2023-03-23T02:05:29;13.30;1.00
25939;DHT22;13739;51.172;4.466;2023-03-23T02:07:58;13.30;1.00
25939;DHT22;13739;51.172;4.466;2023-03-23T02:10:30;13.30;1.00
25939;DHT22;13739;51.172;4.466;2023-03-23T02:12:57;13.30;1.00
25939;DHT22;13739;51.172;4.466;2023-03-23T02:15:26;13.20;1.00
25939;DHT22;13739;51.172;4.466;2023-03-23T02:32:24;13.30;1.00
25939;DHT22;13739;51.172;4.466;2023-03-23T02:34:56;13.20;1.00
25939;DHT22;13739;51.172;4.466;2023-03-23T02:37:31;13.20;1.00
25939;DHT22;13739;51.172;4.466;2023-03-23T02:40:02;13.20;1.00
25939;DHT22;13739;51.172;4.466;2023-03-23T02:42:40;13.10;1.00
25939;DHT22;13739;51.172;4.466;2023-03-23T02:45:10;13.20;1.00
25939;DHT22;13739;51.172;4.466;2023-03-23T02:47:38;13.20;1.00
25939;DHT22;13739;51.172;4.466;2023-03-23T02:50:07;13.20;1.00
25939;DHT22;13739;51.172;4.466;2023-03-23T02:52:36;13.10;1.00
25939;DHT22;13739;51.172;4.466;2023-03-23T02:55:04;13.20;1.00
25939;DHT22;13739;51.172;4.466;2023-03-23T02:57:31;13.10;1.00
25939;DHT22;13739;51.172;4.466;2023-03-23T02:59:57;13.20;1.00
25939;DHT22;13739;51.172;4.466;2023-03-23T03:02:29;13.10;1.00
25939;DHT22;13739;51.172;4.466;2023-03-23T03:18:42;13.00;1.00
25939;DHT22;13739;51.172;4.466;2023-03-23T03:21:12;13.00;1.00
25939;DHT22;13739;51.172;4.466;2023-03-23T03:23:42;13.00;1.00
25939;DHT22;13739;51.172;4.466;2023-03-23T03:26:11;13.00;1.00
25939;DHT22;13739;51.172;4.466;2023-03-23T03:28:37;13.00;1.00
25939;DHT22;13739;51.172;4.466;2023-03-23T03:31:05;13.00;1.00
25939;DHT22;13739;51.172;4.466;2023-03-23T03:33:32;13.10;1.00
25939;DHT22;13739;51.172;4.466;2023-03-23T03:36:03;13.10;1.00
25939;DHT22;13739;51.172;4.466;2023-03-23T03:38:44;13.00;1.00
25939;DHT22;13739;51.172;4.466;2023-03-23T03:41:10;13.10;1.00
25939;DHT22;13739;51.172;4.466;2023-03-23T03:43:36;13.10;1.00
25939;DHT22;13739;51.172;4.466;2023-03-23T03:46:02;13.10;1.00
25939;DHT22;13739;51.172;4.466;2023-03-23T03:48:27;13.10;1.00
25939;DHT22;13739;51.172;4.466;2023-03-23T03:50:53;13.10;1.00
25939;DHT22;13739;51.172;4.466;2023-03-23T03:53:22;13.10;1.00
25939;DHT22;13739;51.172;4.466;2023-03-23T03:55:49;13.10;1.00
25939;DHT22;13739;51.172;4.466;2023-03-23T03:58:15;13.10;1.00
25939;DHT22;13739;51.172;4.466;2023-03-23T04:00:41;13.10;1.00
25939;DHT22;13739;51.172;4.466;2023-03-23T04:03:07;13.10;1.00
25939;DHT22;13739;51.172;4.466;2023-03-23T04:05:34;13.10;1.00
25939;DHT22;13739;51.172;4.466;2023-03-23T04:08:03;13.00;1.00
25939;DHT22;13739;51.172;4.466;2023-03-23T04:10:29;12.90;1.00
25939;DHT22;13739;51.172;4.466;2023-03-23T04:12:56;13.00;1.00
25939;DHT22;13739;51.172;4.466;2023-03-23T04:15:22;13.00;1.00
25939;DHT22;13739;51.172;4.466;2023-03-23T04:17:48;13.00;1.00
25939;DHT22;13739;51.172;4.466;2023-03-23T04:20:14;12.90;1.00
25939;DHT22;13739;51.172;4.466;2023-03-23T04:22:46;12.90;1.00
25939;DHT22;13739;51.172;4.466;2023-03-23T04:25:16;13.00;1.00
25939;DHT22;13739;51.172;4.466;2023-03-23T04:27:43;12.90;1.00
25939;DHT22;13739;51.172;4.466;2023-03-23T04:30:12;12.80;3.60
25939;DHT22;13739;51.172;4.466;2023-03-23T04:32:39;12.60;21.80
25939;DHT22;13739;51.172;4.466;2023-03-23T04:35:10;12.50;26.10
25939;DHT22;13739;51.172;4.466;2023-03-23T04:37:37;12.50;28.80
25939;DHT22;13739;51.172;4.466;2023-03-23T04:40:03;12.40;35.20
25939;DHT22;13739;51.172;4.466;2023-03-23T04:42:35;12.30;34.20
25939;DHT22;13739;51.172;4.466;2023-03-23T04:45:03;12.40;30.20
25939;DHT22;13739;51.172;4.466;2023-03-23T04:47:33;12.30;26.50
25939;DHT22;13739;51.172;4.466;2023-03-23T04:49:59;12.30;23.50
25939;DHT22;13739;51.172;4.466;2023-03-23T04:52:27;12.30;15.70
25939;DHT22;13739;51.172;4.466;2023-03-23T04:54:54;12.40;17.60
25939;DHT22;13739;51.172;4.466;2023-03-23T04:57:21;12.30;10.00
25939;DHT22;13739;51.172;4.466;2023-03-23T04:59:47;12.40;8.30
25939;DHT22;13739;51.172;4.466;2023-03-23T05:02:13;12.40;1.00
25939;DHT22;13739;51.172;4.466;2023-03-23T05:04:39;12.40;1.00
25939;DHT22;13739;51.172;4.466;2023-03-23T05:07:07;12.50;1.00
25939;DHT22;13739;51.172;4.466;2023-03-23T05:09:33;12.50;1.00
25939;DHT22;13739;51.172;4.466;2023-03-23T05:12:06;12.50;1.00
25939;DHT22;13739;51.172;4.466;2023-03-23T05:14:32;12.60;1.00
25939;DHT22;13739;51.172;4.466;2023-03-23T05:16:58;12.60;1.00
25939;DHT22;13739;51.172;4.466;2023-03-23T05:19:24;12.50;1.00
25939;DHT22;13739;51.172;4.466;2023-03-23T05:21:49;12.50;1.00
25939;DHT22;13739;51.172;4.466;2023-03-23T05:24:15;12.50;1.00
25939;DHT22;13739;51.172;4.466;2023-03-23T05:26:41;12.50;1.00
25939;DHT22;13739;51.172;4.466;2023-03-23T05:29:06;12.50;1.00
25939;DHT22;13739;51.172;4.466;2023-03-23T05:31:32;12.50;1.00
25939;DHT22;13739;51.172;4.466;2023-03-23T05:33:58;12.60;1.00
25939;DHT22;13739;51.172;4.466;2023-03-23T05:36:24;12.60;1.00
25939;DHT22;13739;51.172;4.466;2023-03-23T05:38:52;12.60;1.00
25939;DHT22;13739;51.172;4.466;2023-03-23T05:41:18;12.60;1.00
25939;DHT22;13739;51.172;4.466;2023-03-23T05:43:44;12.60;1.00
25939;DHT22;13739;51.172;4.466;2023-03-23T05:46:09;12.60;1.00
25939;DHT22;13739;51.172;4.466;2023-03-23T05:48:35;12.60;1.00
25939;DHT22;13739;51.172;4.466;2023-03-23T05:51:02;12.60;1.00
25939;DHT22;13739;51.172;4.466;2023-03-23T05:53:28;12.50;1.00
25939;DHT22;13739;51.172;4.466;2023-03-23T05:56:00;12.40;2.40
25939;DHT22;13739;51.172;4.466;2023-03-23T05:58:26;12.40;12.00
25939;DHT22;13739;51.172;4.466;2023-03-23T06:00:52;12.30;13.00
25939;DHT22;13739;51.172;4.466;2023-03-23T06:03:17;12.30;19.20
25939;DHT22;13739;51.172;4.466;2023-03-23T06:05:44;12.20;24.00
25939;DHT22;13739;51.172;4.466;2023-03-23T06:08:10;12.10;27.20
25939;DHT22;13739;51.172;4.466;2023-03-23T06:10:37;12.10;31.90
25939;DHT22;13739;51.172;4.466;2023-03-23T06:13:03;12.10;34.30
25939;DHT22;13739;51.172;4.466;2023-03-23T06:15:29;12.10;35.80
25939;DHT22;13739;51.172;4.466;2023-03-23T06:18:03;12.10;32.40
25939;DHT22;13739;51.172;4.466;2023-03-23T06:20:29;12.10;37.80
25939;DHT22;13739;51.172;4.466;2023-03-23T06:22:55;12.10;35.90
25939;DHT22;13739;51.172;4.466;2023-03-23T06:25:22;12.20;38.00
25939;DHT22;13739;51.172;4.466;2023-03-23T06:27:49;12.20;38.20
25939;DHT22;13739;51.172;4.466;2023-03-23T06:30:15;12.10;36.60
25939;DHT22;13739;51.172;4.466;2023-03-23T06:32:41;12.20;35.10
25939;DHT22;13739;51.172;4.466;2023-03-23T06:35:09;12.20;29.90
25939;DHT22;13739;51.172;4.466;2023-03-23T06:37:36;12.20;30.20
25939;DHT22;13739;51.172;4.466;2023-03-23T06:40:03;12.20;22.40
25939;DHT22;13739;51.172;4.466;2023-03-23T06:42:32;12.00;40.50
25939;DHT22;13739;51.172;4.466;2023-03-23T06:44:58;11.80;54.60
25939;DHT22;13739;51.172;4.466;2023-03-23T06:47:26;11.50;58.60
25939;DHT22;13739;51.172;4.466;2023-03-23T06:49:52;11.40;58.80
25939;DHT22;13739;51.172;4.466;2023-03-23T06:52:18;11.30;60.70
25939;DHT22;13739;51.172;4.466;2023-03-23T06:54:44;11.30;54.80
25939;DHT22;13739;51.172;4.466;2023-03-23T06:57:09;11.20;59.50
25939;DHT22;13739;51.172;4.466;2023-03-23T06:59:35;11.00;61.10
25939;DHT22;13739;51.172;4.466;2023-03-23T07:02:01;11.00;62.50
25939;DHT22;13739;51.172;4.466;2023-03-23T07:04:27;11.00;66.10
25939;DHT22;13739;51.172;4.466;2023-03-23T07:06:53;11.00;66.40
25939;DHT22;13739;51.172;4.466;2023-03-23T07:09:18;11.10;65.00
25939;DHT22;13739;51.172;4.466;2023-03-23T07:11:44;11.00;62.70
25939;DHT22;13739;51.172;4.466;2023-03-23T07:14:13;11.00;65.80
25939;DHT22;13739;51.172;4.466;2023-03-23T07:16:38;10.90;62.20
25939;DHT22;13739;51.172;4.466;2023-03-23T07:19:04;10.90;62.00
25939;DHT22;13739;51.172;4.466;2023-03-23T07:21:29;10.80;64.30
25939;DHT22;13739;51.172;4.466;2023-03-23T07:23:55;10.80;64.50
25939;DHT22;13739;51.172;4.466;2023-03-23T07:26:21;10.70;65.20
25939;DHT22;13739;51.172;4.466;2023-03-23T07:28:47;10.70;62.90
25939;DHT22;13739;51.172;4.466;2023-03-23T07:31:13;10.80;60.60
25939;DHT22;13739;51.172;4.466;2023-03-23T07:33:38;10.80;58.30
25939;DHT22;13739;51.172;4.466;2023-03-23T07:36:05;10.70;58.80
25939;DHT22;13739;51.172;4.466;2023-03-23T07:38:32;10.80;59.90
25939;DHT22;13739;51.172;4.466;2023-03-23T07:40:58;10.80;53.40
25939;DHT22;13739;51.172;4.466;2023-03-23T07:43:24;10.80;48.60
25939;DHT22;13739;51.172;4.466;2023-03-23T07:45:50;10.80;45.70
25939;DHT22;13739;51.172;4.466;2023-03-23T07:48:16;10.80;53.10
25939;DHT22;13739;51.172;4.466;2023-03-23T07:50:42;10.80;50.60
25939;DHT22;13739;51.172;4.466;2023-03-23T07:53:09;10.80;51.00
25939;DHT22;13739;51.172;4.466;2023-03-23T07:55:34;10.90;45.10
25939;DHT22;13739;51.172;4.466;2023-03-23T07:58:00;10.90;44.10
25939;DHT22;13739;51.172;4.466;2023-03-23T08:00:26;11.00;39.60
25939;DHT22;13739;51.172;4.466;2023-03-23T08:02:54;11.00;37.50
25939;DHT22;13739;51.172;4.466;2023-03-23T08:05:21;11.00;32.00
25939;DHT22;13739;51.172;4.466;2023-03-23T08:07:47;11.00;38.70
25939;DHT22;13739;51.172;4.466;2023-03-23T08:10:15;11.10;36.00
25939;DHT22;13739;51.172;4.466;2023-03-23T08:12:43;11.30;32.20
25939;DHT22;13739;51.172;4.466;2023-03-23T08:15:10;11.40;22.40
25939;DHT22;13739;51.172;4.466;2023-03-23T08:17:40;11.50;21.80
25939;DHT22;13739;51.172;4.466;2023-03-23T08:20:07;11.40;17.40
25939;DHT22;13739;51.172;4.466;2023-03-23T08:22:39;11.40;25.60
25939;DHT22;13739;51.172;4.466;2023-03-23T08:25:07;11.40;21.20
25939;DHT22;13739;51.172;4.466;2023-03-23T08:27:34;11.50;22.20
25939;DHT22;13739;51.172;4.466;2023-03-23T08:30:00;11.60;12.50
25939;DHT22;13739;51.172;4.466;2023-03-23T08:32:26;11.70;8.80
25939;DHT22;13739;51.172;4.466;2023-03-23T08:34:52;11.70;11.60
25939;DHT22;13739;51.172;4.466;2023-03-23T08:37:18;11.70;13.60
25939;DHT22;13739;51.172;4.466;2023-03-23T08:39:44;11.60;15.20
25939;DHT22;13739;51.172;4.466;2023-03-23T08:42:10;11.50;10.50
25939;DHT22;13739;51.172;4.466;2023-03-23T08:44:36;11.60;14.50
25939;DHT22;13739;51.172;4.466;2023-03-23T08:47:03;11.70;10.20
25939;DHT22;13739;51.172;4.466;2023-03-23T08:49:31;11.80;12.20
25939;DHT22;13739;51.172;4.466;2023-03-23T08:51:58;11.80;9.20
25939;DHT22;13739;51.172;4.466;2023-03-23T08:54:24;11.70;12.20
25939;DHT22;13739;51.172;4.466;2023-03-23T08:56:50;11.70;12.20
25939;DHT22;13739;51.172;4.466;2023-03-23T08:59:16;11.70;15.50
25939;DHT22;13739;51.172;4.466;2023-03-23T09:01:42;11.70;18.50
25939;DHT22;13739;51.172;4.466;2023-03-23T09:04:08;11.80;18.50
25939;DHT22;13739;51.172;4.466;2023-03-23T09:06:36;11.80;20.80
25939;DHT22;13739;51.172;4.466;2023-03-23T09:09:02;11.80;14.20
25939;DHT22;13739;51.172;4.466;2023-03-23T09:11:33;11.80;12.20
25939;DHT22;13739;51.172;4.466;2023-03-23T09:13:59;11.90;18.10
25939;DHT22;13739;51.172;4.466;2023-03-23T09:16:24;11.90;15.70
25939;DHT22;13739;51.172;4.466;2023-03-23T09:18:50;12.00;15.50
25939;DHT22;13739;51.172;4.466;2023-03-23T09:21:16;12.00;17.40
25939;DHT22;13739;51.172;4.466;2023-03-23T09:23:43;12.10;12.10
25939;DHT22;13739;51.172;4.466;2023-03-23T09:26:09;12.10;7.50
25939;DHT22;13739;51.172;4.466;2023-03-23T09:28:35;12.10;6.20
25939;DHT22;13739;51.172;4.466;2023-03-23T09:31:01;12.20;4.10
25939;DHT22;13739;51.172;4.466;2023-03-23T09:33:27;12.20;1.00
25939;DHT22;13739;51.172;4.466;2023-03-23T09:35:58;12.30;1.00
25939;DHT22;13739;51.172;4.466;2023-03-23T09:38:24;12.30;1.00
25939;DHT22;13739;51.172;4.466;2023-03-23T09:43:53;12.50;1.00
25939;DHT22;13739;51.172;4.466;2023-03-23T09:49:19;12.70;1.00
25939;DHT22;13739;51.172;4.466;2023-03-23T09:52:13;12.70;1.00
25939;DHT22;13739;51.172;4.466;2023-03-23T09:54:46;12.80;1.00
25939;DHT22;13739;51.172;4.466;2023-03-23T10:00:17;12.80;1.00
25939;DHT22;13739;51.172;4.466;2023-03-23T10:03:24;13.10;1.00
25939;DHT22;13739;51.172;4.466;2023-03-23T10:05:48;13.20;1.00
25939;DHT22;13739;51.172;4.466;2023-03-23T10:08:18;13.40;1.00
25939;DHT22;13739;51.172;4.466;2023-03-23T10:11:11;13.50;1.00
25939;DHT22;13739;51.172;4.466;2023-03-23T10:16:27;13.60;1.00
25939;DHT22;13739;51.172;4.466;2023-03-23T10:21:25;14.00;1.00
25939;DHT22;13739;51.172;4.466;2023-03-23T10:29:16;14.10;1.00
25939;DHT22;13739;51.172;4.466;2023-03-23T10:31:56;14.00;1.00
25939;DHT22;13739;51.172;4.466;2023-03-23T10:36:59;14.30;1.00
25939;DHT22;13739;51.172;4.466;2023-03-23T10:39:31;14.40;1.00
25939;DHT22;13739;51.172;4.466;2023-03-23T10:42:00;14.40;1.00
25939;DHT22;13739;51.172;4.466;2023-03-23T10:44:32;14.40;1.00
25939;DHT22;13739;51.172;4.466;2023-03-23T10:47:08;14.40;1.00
25939;DHT22;13739;51.172;4.466;2023-03-23T10:54:54;14.00;1.00
25939;DHT22;13739;51.172;4.466;2023-03-23T10:57:26;14.20;1.00
25939;DHT22;13739;51.172;4.466;2023-03-23T11:02:47;14.30;1.00
25939;DHT22;13739;51.172;4.466;2023-03-23T11:05:21;14.30;1.00
25939;DHT22;13739;51.172;4.466;2023-03-23T11:07:54;14.40;1.00
25939;DHT22;13739;51.172;4.466;2023-03-23T11:10:34;14.50;1.00
25939;DHT22;13739;51.172;4.466;2023-03-23T11:13:01;14.50;1.00
25939;DHT22;13739;51.172;4.466;2023-03-23T11:18:04;14.60;1.00
25939;DHT22;13739;51.172;4.466;2023-03-23T11:20:35;14.60;1.00
25939;DHT22;13739;51.172;4.466;2023-03-23T11:23:16;14.70;1.00
25939;DHT22;13739;51.172;4.466;2023-03-23T11:29:10;14.80;1.00
25939;DHT22;13739;51.172;4.466;2023-03-23T11:31:41;15.00;1.00
25939;DHT22;13739;51.172;4.466;2023-03-23T11:34:17;15.10;1.00
25939;DHT22;13739;51.172;4.466;2023-03-23T11:37:11;15.30;1.00
25939;DHT22;13739;51.172;4.466;2023-03-23T11:40:00;15.40;1.00
25939;DHT22;13739;51.172;4.466;2023-03-23T11:49:02;15.70;1.00
25939;DHT22;13739;51.172;4.466;2023-03-23T11:58:58;15.50;99.90
25939;DHT22;13739;51.172;4.466;2023-03-23T12:04:23;15.40;1.00
25939;DHT22;13739;51.172;4.466;2023-03-23T12:21:06;16.10;1.00
25939;DHT22;13739;51.172;4.466;2023-03-23T12:23:50;16.30;52.30
25939;DHT22;13739;51.172;4.466;2023-03-23T12:26:28;16.30;1.00
25939;DHT22;13739;51.172;4.466;2023-03-23T12:31:42;16.40;1.00
25939;DHT22;13739;51.172;4.466;2023-03-23T12:42:50;15.90;99.90
25939;DHT22;13739;51.172;4.466;2023-03-23T12:48:15;15.70;1.00
25939;DHT22;13739;51.172;4.466;2023-03-23T12:53:51;16.10;1.00
25939;DHT22;13739;51.172;4.466;2023-03-23T12:59:16;16.30;99.90
25939;DHT22;13739;51.172;4.466;2023-03-23T13:01:45;16.20;99.90
25939;DHT22;13739;51.172;4.466;2023-03-23T13:04:20;16.30;1.00
25939;DHT22;13739;51.172;4.466;2023-03-23T13:06:48;16.50;1.00
25939;DHT22;13739;51.172;4.466;2023-03-23T13:09:37;16.70;1.00
25939;DHT22;13739;51.172;4.466;2023-03-23T13:12:05;16.60;1.00
25939;DHT22;13739;51.172;4.466;2023-03-23T13:17:26;16.30;99.90
25939;DHT22;13739;51.172;4.466;2023-03-23T13:26:02;16.30;99.90
25939;DHT22;13739;51.172;4.466;2023-03-23T13:31:28;15.80;99.90
25939;DHT22;13739;51.172;4.466;2023-03-23T13:34:22;15.10;99.90
25939;DHT22;13739;51.172;4.466;2023-03-23T13:37:08;14.20;99.90
25939;DHT22;13739;51.172;4.466;2023-03-23T13:49:57;13.80;1.00
25939;DHT22;13739;51.172;4.466;2023-03-23T14:03:31;14.90;1.00
25939;DHT22;13739;51.172;4.466;2023-03-23T14:11:09;15.00;99.90
25939;DHT22;13739;51.172;4.466;2023-03-23T14:16:04;15.10;99.90
25939;DHT22;13739;51.172;4.466;2023-03-23T14:18:39;14.90;99.90
25939;DHT22;13739;51.172;4.466;2023-03-23T14:21:22;14.20;1.00
25939;DHT22;13739;51.172;4.466;2023-03-23T14:23:48;13.60;1.00
25939;DHT22;13739;51.172;4.466;2023-03-23T14:26:20;13.20;1.00
25939;DHT22;13739;51.172;4.466;2023-03-23T14:28:50;13.00;1.00
25939;DHT22;13739;51.172;4.466;2023-03-23T14:33:42;12.70;5.50
25939;DHT22;13739;51.172;4.466;2023-03-23T14:36:08;12.90;1.00
25939;DHT22;13739;51.172;4.466;2023-03-23T14:38:33;13.30;1.00
25939;DHT22;13739;51.172;4.466;2023-03-23T14:41:01;13.60;1.00
25939;DHT22;13739;51.172;4.466;2023-03-23T14:43:28;13.70;1.00
25939;DHT22;13739;51.172;4.466;2023-03-23T14:45:58;13.70;1.00
25939;DHT22;13739;51.172;4.466;2023-03-23T14:48:25;13.70;1.00
25939;DHT22;13739;51.172;4.466;2023-03-23T14:50:56;13.70;1.00
25939;DHT22;13739;51.172;4.466;2023-03-23T14:53:39;13.80;1.00
25939;DHT22;13739;51.172;4.466;2023-03-23T14:56:16;13.90;1.00
25939;DHT22;13739;51.172;4.466;2023-03-23T14:58:49;14.00;12.20
25939;DHT22;13739;51.172;4.466;2023-03-23T15:01:26;14.10;1.00
25939;DHT22;13739;51.172;4.466;2023-03-23T15:04:01;14.10;1.00
25939;DHT22;13739;51.172;4.466;2023-03-23T15:06:29;14.20;1.60
25939;DHT22;13739;51.172;4.466;2023-03-23T15:08:59;14.20;1.00
25939;DHT22;13739;51.172;4.466;2023-03-23T15:11:32;14.20;1.00
25939;DHT22;13739;51.172;4.466;2023-03-23T15:14:00;14.30;1.00
25939;DHT22;13739;51.172;4.466;2023-03-23T15:16:33;14.40;1.00
25939;DHT22;13739;51.172;4.466;2023-03-23T15:19:03;14.30;1.00
25939;DHT22;13739;51.172;4.466;2023-03-23T15:21:35;14.20;1.00
25939;DHT22;13739;51.172;4.466;2023-03-23T15:24:02;14.10;4.70
25939;DHT22;13739;51.172;4.466;2023-03-23T15:26:44;14.00;9.00
25939;DHT22;13739;51.172;4.466;2023-03-23T15:29:12;14.30;1.00
25939;DHT22;13739;51.172;4.466;2023-03-23T15:31:47;14.60;1.00
25939;DHT22;13739;51.172;4.466;2023-03-23T15:36:45;15.00;1.00
25939;DHT22;13739;51.172;4.466;2023-03-23T15:39:12;15.20;1.00
25939;DHT22;13739;51.172;4.466;2023-03-23T15:41:47;15.30;1.00
25939;DHT22;13739;51.172;4.466;2023-03-23T15:44:24;15.40;1.00
25939;DHT22;13739;51.172;4.466;2023-03-23T15:46:52;15.30;1.00
25939;DHT22;13739;51.172;4.466;2023-03-23T15:49:24;15.30;1.00
25939;DHT22;13739;51.172;4.466;2023-03-23T15:51:50;15.20;1.00
25939;DHT22;13739;51.172;4.466;2023-03-23T15:54:16;15.30;1.00
25939;DHT22;13739;51.172;4.466;2023-03-23T15:56:43;15.30;99.90
25939;DHT22;13739;51.172;4.466;2023-03-23T15:59:09;15.30;99.90
25939;DHT22;13739;51.172;4.466;2023-03-23T16:01:38;15.40;99.90
25939;DHT22;13739;51.172;4.466;2023-03-23T16:04:13;15.70;99.90
25939;DHT22;13739;51.172;4.466;2023-03-23T16:06:39;15.70;99.90
25939;DHT22;13739;51.172;4.466;2023-03-23T16:09:05;15.60;32.10
25939;DHT22;13739;51.172;4.466;2023-03-23T16:11:32;15.60;99.90
25939;DHT22;13739;51.172;4.466;2023-03-23T16:13:58;15.50;1.00
25939;DHT22;13739;51.172;4.466;2023-03-23T16:16:28;15.40;99.90
25939;DHT22;13739;51.172;4.466;2023-03-23T16:18:55;15.40;99.90
25939;DHT22;13739;51.172;4.466;2023-03-23T16:21:21;15.30;76.60
25939;DHT22;13739;51.172;4.466;2023-03-23T16:23:47;15.20;99.90
25939;DHT22;13739;51.172;4.466;2023-03-23T16:26:13;15.00;1.00
25939;DHT22;13739;51.172;4.466;2023-03-23T16:28:40;14.80;1.00
25939;DHT22;13739;51.172;4.466;2023-03-23T16:31:06;14.40;1.00
25939;DHT22;13739;51.172;4.466;2023-03-23T16:33:32;14.30;1.00
25939;DHT22;13739;51.172;4.466;2023-03-23T16:35:58;14.20;1.00
25939;DHT22;13739;51.172;4.466;2023-03-23T16:38:24;14.20;1.00
25939;DHT22;13739;51.172;4.466;2023-03-23T16:40:50;14.30;1.00
25939;DHT22;13739;51.172;4.466;2023-03-23T16:43:16;14.30;1.00
25939;DHT22;13739;51.172;4.466;2023-03-23T16:45:44;14.30;1.60
25939;DHT22;13739;51.172;4.466;2023-03-23T16:48:11;14.30;2.40
25939;DHT22;13739;51.172;4.466;2023-03-23T16:50:37;14.40;1.00
25939;DHT22;13739;51.172;4.466;2023-03-23T16:53:05;14.50;1.00
25939;DHT22;13739;51.172;4.466;2023-03-23T16:55:32;14.50;1.00
25939;DHT22;13739;51.172;4.466;2023-03-23T16:57:58;14.40;1.00
25939;DHT22;13739;51.172;4.466;2023-03-23T17:00:24;14.40;1.00
25939;DHT22;13739;51.172;4.466;2023-03-23T17:02:52;14.50;1.00
25939;DHT22;13739;51.172;4.466;2023-03-23T17:05:26;14.50;1.00
25939;DHT22;13739;51.172;4.466;2023-03-23T17:07:52;14.50;1.00
25939;DHT22;13739;51.172;4.466;2023-03-23T17:10:20;14.50;1.00
25939;DHT22;13739;51.172;4.466;2023-03-23T17:12:46;14.60;1.00
25939;DHT22;13739;51.172;4.466;2023-03-23T17:15:11;14.50;1.00
25939;DHT22;13739;51.172;4.466;2023-03-23T17:17:37;14.50;1.00
25939;DHT22;13739;51.172;4.466;2023-03-23T17:20:04;14.50;1.00
25939;DHT22;13739;51.172;4.466;2023-03-23T17:22:30;14.50;99.90
25939;DHT22;13739;51.172;4.466;2023-03-23T17:24:56;14.50;99.90
25939;DHT22;13739;51.172;4.466;2023-03-23T17:27:24;14.60;99.90
25939;DHT22;13739;51.172;4.466;2023-03-23T17:29:50;14.50;99.90
25939;DHT22;13739;51.172;4.466;2023-03-23T17:32:16;14.50;99.90
25939;DHT22;13739;51.172;4.466;2023-03-23T17:34:43;14.50;99.90
25939;DHT22;13739;51.172;4.466;2023-03-23T17:37:09;14.50;99.90
25939;DHT22;13739;51.172;4.466;2023-03-23T17:39:35;14.50;99.90
25939;DHT22;13739;51.172;4.466;2023-03-23T17:42:01;14.60;99.90
25939;DHT22;13739;51.172;4.466;2023-03-23T17:44:28;14.50;19.60
25939;DHT22;13739;51.172;4.466;2023-03-23T17:46:54;14.50;90.20
25939;DHT22;13739;51.172;4.466;2023-03-23T17:49:23;14.60;1.00
25939;DHT22;13739;51.172;4.466;2023-03-23T17:51:49;14.60;1.00
25939;DHT22;13739;51.172;4.466;2023-03-23T17:54:14;14.60;1.00
25939;DHT22;13739;51.172;4.466;2023-03-23T17:56:40;14.60;1.00
25939;DHT22;13739;51.172;4.466;2023-03-23T17:59:06;14.50;1.00
25939;DHT22;13739;51.172;4.466;2023-03-23T18:01:32;14.50;1.00
25939;DHT22;13739;51.172;4.466;2023-03-23T18:03:58;14.40;56.40
25939;DHT22;13739;51.172;4.466;2023-03-23T18:06:24;14.50;99.90
25939;DHT22;13739;51.172;4.466;2023-03-23T18:08:50;14.50;1.00
25939;DHT22;13739;51.172;4.466;2023-03-23T18:11:16;14.50;1.00
25939;DHT22;13739;51.172;4.466;2023-03-23T18:13:41;14.50;1.00
25939;DHT22;13739;51.172;4.466;2023-03-23T18:16:07;14.50;1.00
25939;DHT22;13739;51.172;4.466;2023-03-23T18:18:34;14.50;1.00
25939;DHT22;13739;51.172;4.466;2023-03-23T18:21:02;14.50;1.00
25939;DHT22;13739;51.172;4.466;2023-03-23T18:23:29;14.50;1.00
25939;DHT22;13739;51.172;4.466;2023-03-23T18:26:03;14.50;99.90
25939;DHT22;13739;51.172;4.466;2023-03-23T18:28:29;14.50;1.00
25939;DHT22;13739;51.172;4.466;2023-03-23T18:31:04;14.50;1.00
25939;DHT22;13739;51.172;4.466;2023-03-23T18:33:31;14.60;98.30
25939;DHT22;13739;51.172;4.466;2023-03-23T18:35:59;14.60;99.90